Time;durP1;ratioP1;P1;durP2;ratioP2;P2;SDS_P1;SDS_P2;PMS_P1;PMS_P2;Temp;Humidity;BMP_temperature;BMP_pressure;BME280_temperature;BME280_humidity;BME280_pressure;Samples;Min_cycle;Max_cycle;Signal;HPM_P1;HPM_P2
2022/07/21 00:01:26;;;;;;;3.30;3.00;;;24.00;91.50;;;;;;5085624;28;20228;-65
2022/07/21 00:03:53;;;;;;;2.97;2.75;;;24.00;91.60;;;;;;5086698;28;20192;-65
2022/07/21 00:06:20;;;;;;;3.40;3.10;;;24.00;91.70;;;;;;5084783;28;20568;-65
2022/07/21 00:08:47;;;;;;;3.47;2.78;;;24.00;92.20;;;;;;5101146;27;20287;-64
2022/07/21 00:11:14;;;;;;;2.25;2.15;;;24.00;91.90;;;;;;5087296;28;20197;-65
2022/07/21 00:13:43;;;;;;;2.17;2.00;;;24.00;91.90;;;;;;5083723;28;20192;-65
2022/07/21 00:16:10;;;;;;;4.07;2.55;;;24.00;91.90;;;;;;5081188;28;20200;-65
2022/07/21 00:18:37;;;;;;;2.65;2.45;;;24.00;92.00;;;;;;5086034;28;20680;-66
2022/07/21 00:21:05;;;;;;;2.90;2.65;;;24.00;92.10;;;;;;5084295;28;20307;-66
2022/07/21 00:23:32;;;;;;;2.30;2.10;;;23.90;92.20;;;;;;5085638;28;20274;-67
2022/07/21 00:25:59;;;;;;;2.38;2.17;;;23.90;92.30;;;;;;5085485;28;20207;-66
2022/07/21 00:28:26;;;;;;;2.38;2.28;;;23.90;92.40;;;;;;5086866;28;20203;-66
2022/07/21 00:30:54;;;;;;;2.17;2.03;;;23.90;92.40;;;;;;5083964;28;20973;-66
2022/07/21 00:33:21;;;;;;;2.22;1.92;;;23.80;92.50;;;;;;5086204;28;20188;-66
2022/07/21 00:35:49;;;;;;;2.33;2.20;;;23.80;92.90;;;;;;5081394;28;20199;-66
2022/07/21 00:38:16;;;;;;;2.45;2.25;;;23.80;92.70;;;;;;5085450;28;20597;-66
2022/07/21 00:40:43;;;;;;;2.28;2.17;;;23.80;92.80;;;;;;5086937;28;20196;-66
2022/07/21 00:43:10;;;;;;;2.75;2.55;;;23.80;92.90;;;;;;5097155;28;20730;-67
2022/07/21 00:45:37;;;;;;;2.83;2.58;;;23.80;93.00;;;;;;5085903;28;20216;-66
2022/07/21 00:48:06;;;;;;;2.58;2.45;;;23.80;93.00;;;;;;5082353;28;20510;-65
2022/07/21 00:50:34;;;;;;;3.28;2.92;;;23.80;93.10;;;;;;5085064;28;20750;-65
2022/07/21 00:53:02;;;;;;;4.25;3.03;;;23.80;93.30;;;;;;5084794;28;20715;-65
2022/07/21 00:55:29;;;;;;;2.67;2.47;;;23.80;93.40;;;;;;5085491;28;20615;-65
2022/07/21 00:57:56;;;;;;;2.33;2.20;;;23.80;93.40;;;;;;5088849;28;20195;-65
2022/07/21 01:00:26;;;;;;;2.42;2.20;;;23.80;93.50;;;;;;5084396;28;20230;-65
2022/07/21 01:02:53;;;;;;;2.45;2.22;;;23.70;93.50;;;;;;5085878;28;20195;-65
2022/07/21 01:05:22;;;;;;;2.42;2.33;;;23.60;93.60;;;;;;5088832;28;20226;-66
2022/07/21 01:07:52;;;;;;;2.60;2.40;;;23.60;93.70;;;;;;5084819;28;20197;-65
2022/07/21 01:10:21;;;;;;;2.30;2.10;;;23.60;93.80;;;;;;5082383;28;20863;-65
2022/07/21 01:12:48;;;;;;;2.47;2.25;;;23.60;93.90;;;;;;5086381;28;20222;-65
2022/07/21 01:15:17;;;;;;;2.55;2.35;;;23.60;94.00;;;;;;5087016;28;20300;-65
2022/07/21 01:17:45;;;;;;;2.63;2.40;;;23.50;94.00;;;;;;5090021;28;20195;-66
2022/07/21 01:20:15;;;;;;;3.22;2.47;;;23.50;94.10;;;;;;5089580;28;20196;-65
2022/07/21 01:22:46;;;;;;;2.97;2.65;;;23.50;94.30;;;;;;5088493;28;20310;-65
2022/07/21 01:25:13;;;;;;;2.38;2.00;;;23.40;94.40;;;;;;5088416;28;20720;-65
2022/07/21 01:27:41;;;;;;;2.33;2.22;;;23.40;94.50;;;;;;5088665;28;20199;-65
2022/07/21 01:30:10;;;;;;;2.25;2.15;;;23.40;94.50;;;;;;5088189;28;20617;-65
2022/07/21 01:32:37;;;;;;;2.25;2.15;;;23.50;94.60;;;;;;5087082;28;20203;-65
2022/07/21 01:35:06;;;;;;;2.25;2.15;;;23.40;94.60;;;;;;5087870;28;20220;-65
2022/07/21 01:37:37;;;;;;;2.30;2.10;;;23.20;94.70;;;;;;5087123;28;20739;-64
2022/07/21 01:42:52;;;;;;;2.63;2.42;;;23.40;94.90;;;;;;5087403;28;20202;-65
2022/07/21 01:45:19;;;;;;;3.00;2.70;;;23.30;94.90;;;;;;5088654;28;20204;-66
2022/07/21 01:47:47;;;;;;;2.97;2.42;;;23.30;94.90;;;;;;5087742;28;20200;-66
2022/07/21 01:50:14;;;;;;;2.78;2.58;;;23.30;95.00;;;;;;5089196;28;20197;-65
2022/07/21 01:52:41;;;;;;;2.42;2.08;;;23.30;95.10;;;;;;5088193;28;20206;-65
2022/07/21 01:55:09;;;;;;;2.13;2.03;;;23.30;95.10;;;;;;5089003;28;20228;-65
2022/07/21 01:57:36;;;;;;;2.00;1.90;;;23.30;95.20;;;;;;5088078;28;20279;-65
2022/07/21 02:00:05;;;;;;;2.20;2.10;;;23.30;95.30;;;;;;5087528;28;20200;-65
2022/07/21 02:02:33;;;;;;;2.88;2.67;;;23.20;95.30;;;;;;5088054;28;20211;-65
2022/07/21 02:05:00;;;;;;;2.60;2.40;;;23.20;95.40;;;;;;5102939;27;20218;-65
2022/07/21 02:07:27;;;;;;;3.38;3.08;;;23.10;95.40;;;;;;5089576;28;20239;-65
2022/07/21 02:09:55;;;;;;;3.35;3.05;;;23.10;95.80;;;;;;5087794;28;20280;-65
2022/07/21 02:12:24;;;;;;;5.30;3.00;;;23.00;95.60;;;;;;5090854;28;20571;-65
2022/07/21 02:14:51;;;;;;;2.78;2.58;;;23.00;95.70;;;;;;5087686;28;20238;-65
2022/07/21 02:17:18;;;;;;;3.63;3.33;;;22.90;95.80;;;;;;5087704;28;20659;-66
2022/07/21 02:19:45;;;;;;;3.55;2.90;;;22.90;96.00;;;;;;5088057;28;20668;-66
2022/07/21 02:22:12;;;;;;;3.15;2.80;;;22.80;96.10;;;;;;5083531;28;20196;-66
2022/07/21 02:24:40;;;;;;;2.55;2.35;;;22.90;96.20;;;;;;5086316;28;20312;-66
2022/07/21 02:27:08;;;;;;;3.13;2.83;;;22.90;96.20;;;;;;5084131;28;20219;-66
2022/07/21 02:29:36;;;;;;;2.53;2.33;;;22.90;96.20;;;;;;5101745;27;20205;-66
2022/07/21 02:32:04;;;;;;;2.67;2.47;;;22.90;96.30;;;;;;5086118;28;20208;-66
2022/07/21 02:34:31;;;;;;;2.50;2.30;;;22.90;96.30;;;;;;5093259;28;20294;-64
2022/07/21 02:36:58;;;;;;;2.63;2.42;;;22.80;96.40;;;;;;5088616;28;20667;-67
2022/07/21 02:39:25;;;;;;;2.45;2.30;;;22.80;96.50;;;;;;5102255;27;20196;-66
2022/07/21 02:41:52;;;;;;;2.22;2.13;;;22.80;96.60;;;;;;5088627;28;20586;-66
2022/07/21 02:44:19;;;;;;;2.60;2.40;;;22.80;96.70;;;;;;5086238;28;20192;-66
2022/07/21 02:46:48;;;;;;;2.60;2.40;;;22.80;96.70;;;;;;5087053;28;20224;-66
2022/07/21 02:49:15;;;;;;;2.45;2.25;;;22.80;96.80;;;;;;5103207;27;20443;-65
2022/07/21 02:51:42;;;;;;;2.38;2.20;;;22.80;96.80;;;;;;5086897;28;20210;-65
2022/07/21 02:54:09;;;;;;;3.13;2.85;;;22.80;96.70;;;;;;5082741;28;20632;-65
2022/07/21 02:56:36;;;;;;;2.60;2.40;;;22.80;96.70;;;;;;5085780;28;20185;-66
2022/07/21 02:59:03;;;;;;;2.72;2.20;;;22.80;96.80;;;;;;5085171;28;20300;-65
2022/07/21 03:01:31;;;;;;;2.63;2.42;;;22.70;96.70;;;;;;5087256;28;20308;-65
2022/07/21 03:03:59;;;;;;;2.83;2.53;;;22.70;96.70;;;;;;5086065;27;20302;-65
2022/07/21 03:06:26;;;;;;;2.90;2.38;;;22.70;96.80;;;;;;5085937;28;20208;-65
2022/07/21 03:08:53;;;;;;;2.70;2.50;;;22.60;96.80;;;;;;5086915;28;20200;-65
2022/07/21 03:11:21;;;;;;;2.72;2.53;;;22.60;96.80;;;;;;5087007;28;20215;-65
2022/07/21 03:13:48;;;;;;;2.90;2.70;;;22.60;96.80;;;;;;5085230;28;20197;-65
2022/07/21 03:16:15;;;;;;;3.63;3.33;;;22.60;96.90;;;;;;5086738;28;20268;-65
2022/07/21 03:18:42;;;;;;;3.40;3.13;;;22.60;96.90;;;;;;5086222;28;20222;-65
2022/07/21 03:21:10;;;;;;;5.50;2.80;;;22.50;97.30;;;;;;5083248;28;20219;-65
2022/07/21 03:23:37;;;;;;;3.85;3.45;;;22.40;97.00;;;;;;5085616;28;20196;-65
2022/07/21 03:26:05;;;;;;;4.50;3.30;;;22.00;97.00;;;;;;5087298;28;20574;-65
2022/07/21 03:28:32;;;;;;;3.22;3.03;;;22.30;97.30;;;;;;5086530;28;20201;-66
2022/07/21 03:30:59;;;;;;;3.90;3.50;;;22.20;97.40;;;;;;5086492;28;20295;-65
2022/07/21 03:33:29;;;;;;;3.53;3.22;;;22.20;97.50;;;;;;5090601;28;20226;-66
2022/07/21 03:35:58;;;;;;;3.75;3.38;;;22.20;97.60;;;;;;5084509;28;20196;-66
2022/07/21 03:38:27;;;;;;;3.10;2.80;;;22.20;97.70;;;;;;5086626;28;20609;-66
2022/07/21 03:40:54;;;;;;;4.53;3.42;;;22.20;97.90;;;;;;5085279;28;20290;-66
2022/07/21 03:43:21;;;;;;;3.67;3.35;;;22.10;98.00;;;;;;5085481;28;20199;-66
2022/07/21 03:45:48;;;;;;;3.35;3.10;;;22.10;98.20;;;;;;5087001;28;20651;-68
2022/07/21 03:48:15;;;;;;;3.40;3.10;;;22.10;98.30;;;;;;5098940;27;20204;-67
2022/07/21 03:50:43;;;;;;;3.85;3.45;;;22.10;98.50;;;;;;5084800;28;22328;-65
2022/07/21 03:53:10;;;;;;;4.40;3.90;;;22.10;98.70;;;;;;5091751;28;20205;-66
2022/07/21 03:55:39;;;;;;;5.07;4.18;;;22.00;98.90;;;;;;5087111;28;20550;-66
2022/07/21 03:58:07;;;;;;;3.50;3.20;;;22.00;99.20;;;;;;5085068;28;20208;-66
2022/07/21 04:00:37;;;;;;;4.65;3.75;;;22.00;99.30;;;;;;5089520;28;20741;-66
2022/07/21 04:03:05;;;;;;;4.38;4.00;;;22.00;99.50;;;;;;5086177;28;20192;-66
2022/07/21 04:05:33;;;;;;;4.70;3.90;;;22.00;99.60;;;;;;5088831;28;20386;-66
2022/07/21 04:08:01;;;;;;;4.38;3.50;;;22.00;99.80;;;;;;5081320;28;20196;-66
2022/07/21 04:10:30;;;;;;;4.18;3.35;;;22.00;99.90;;;;;;5086792;28;20196;-66
2022/07/21 04:13:01;;;;;;;5.13;4.18;;;22.00;99.90;;;;;;5084491;28;20206;-66
2022/07/21 04:15:28;;;;;;;5.40;3.72;;;22.10;99.90;;;;;;5085477;28;20310;-66
2022/07/21 04:17:55;;;;;;;3.60;3.30;;;22.10;99.90;;;;;;5085614;28;20279;-66
2022/07/21 04:20:22;;;;;;;5.18;4.05;;;22.10;99.90;;;;;;5086545;28;20255;-65
2022/07/21 04:22:51;;;;;;;4.75;4.07;;;22.10;99.90;;;;;;5083498;28;20288;-64
2022/07/21 04:25:19;;;;;;;6.03;4.05;;;22.10;99.90;;;;;;5083575;28;20283;-64
2022/07/21 04:27:48;;;;;;;5.45;4.40;;;22.10;99.90;;;;;;5085117;28;20240;-66
2022/07/21 04:30:18;;;;;;;4.93;4.38;;;22.20;99.90;;;;;;5086143;28;20531;-66
2022/07/21 04:32:46;;;;;;;5.38;4.82;;;22.10;99.90;;;;;;5085746;28;20280;-66
2022/07/21 04:35:14;;;;;;;5.72;5.13;;;22.00;99.90;;;;;;5084452;28;20322;-66
2022/07/21 04:37:41;;;;;;;5.97;4.70;;;22.00;99.90;;;;;;5084407;28;20192;-66
2022/07/21 04:40:11;;;;;;;7.05;4.93;;;22.00;99.90;;;;;;5089315;28;20321;-66
2022/07/21 04:42:38;;;;;;;5.50;4.93;;;22.00;99.90;;;;;;5085438;28;20735;-66
2022/07/21 04:45:07;;;;;;;5.38;4.53;;;22.00;99.90;;;;;;5084764;28;20588;-64
2022/07/21 04:47:43;;;;;;;4.65;4.22;;;22.00;99.90;;;;;;5102176;27;20301;-65
2022/07/21 04:50:11;;;;;;;4.70;4.25;;;22.00;99.90;;;;;;5089425;28;20192;-64
2022/07/21 04:52:38;;;;;;;4.07;3.47;;;22.00;99.90;;;;;;5087931;28;20616;-65
2022/07/21 04:55:06;;;;;;;3.83;3.53;;;22.00;99.90;;;;;;5090626;28;20196;-64
2022/07/21 04:57:38;;;;;;;3.80;3.50;;;22.10;99.90;;;;;;5089678;28;20197;-66
2022/07/21 05:00:09;;;;;;;7.25;4.15;;;22.10;99.90;;;;;;5089573;28;20226;-65
2022/07/21 05:02:37;;;;;;;6.38;4.53;;;22.20;99.90;;;;;;5089345;28;20180;-65
2022/07/21 05:05:06;;;;;;;5.80;4.53;;;22.20;99.90;;;;;;5089011;28;20215;-65
2022/07/21 05:07:34;;;;;;;9.65;5.35;;;22.20;99.90;;;;;;5089328;28;20512;-65
2022/07/21 05:10:04;;;;;;;4.57;4.18;;;22.20;99.90;;;;;;5087249;28;20326;-65
2022/07/21 05:12:32;;;;;;;5.28;4.63;;;22.30;99.90;;;;;;5090318;28;20195;-64
2022/07/21 05:14:59;;;;;;;5.20;4.15;;;22.00;99.90;;;;;;5088548;28;20224;-65
2022/07/21 05:17:26;;;;;;;3.92;3.63;;;22.30;99.90;;;;;;5089417;28;20922;-65
2022/07/21 05:19:53;;;;;;;3.72;3.42;;;22.40;99.90;;;;;;5088114;28;20220;-65
2022/07/21 05:22:21;;;;;;;5.85;4.13;;;22.40;99.90;;;;;;5087496;28;20952;-65
2022/07/21 05:24:48;;;;;;;5.07;3.88;;;22.40;99.90;;;;;;5091904;28;20202;-65
2022/07/21 05:27:16;;;;;;;6.68;4.30;;;22.50;99.90;;;;;;5088940;28;20258;-65
2022/07/21 05:29:43;;;;;;;5.90;4.47;;;22.50;99.90;;;;;;5084054;28;20195;-66
2022/07/21 05:32:10;;;;;;;5.65;3.80;;;22.50;99.90;;;;;;5088600;28;20203;-66
2022/07/21 05:34:37;;;;;;;5.35;4.22;;;22.60;99.90;;;;;;5084995;28;20229;-66
2022/07/21 05:37:04;;;;;;;4.32;3.92;;;22.60;99.90;;;;;;5088091;28;20678;-67
2022/07/21 05:39:33;;;;;;;7.28;4.30;;;22.60;99.90;;;;;;5087483;28;20200;-66
2022/07/21 05:42:00;;;;;;;9.00;4.88;;;22.70;99.90;;;;;;5089806;28;20230;-67
2022/07/21 05:44:27;;;;;;;7.28;5.13;;;22.70;99.90;;;;;;5086833;28;20200;-67
2022/07/21 05:46:54;;;;;;;6.40;4.93;;;22.70;99.90;;;;;;5086805;28;20473;-66
2022/07/21 05:49:21;;;;;;;5.13;4.10;;;22.70;99.90;;;;;;5086799;28;20271;-66
2022/07/21 05:51:48;;;;;;;3.92;3.63;;;22.70;99.90;;;;;;5103156;27;20207;-66
2022/07/21 05:54:15;;;;;;;4.20;3.90;;;22.80;99.90;;;;;;5088074;28;20658;-68
2022/07/21 05:56:44;;;;;;;5.65;3.10;;;22.90;99.90;;;;;;5086971;28;20647;-65
2022/07/21 05:59:11;;;;;;;3.80;3.28;;;22.90;99.90;;;;;;5085628;28;20204;-65
2022/07/21 06:01:38;;;;;;;5.75;4.25;;;22.90;99.90;;;;;;5088872;28;20284;-67
2022/07/21 06:04:05;;;;;;;3.72;3.42;;;23.00;99.90;;;;;;5087777;27;20630;-66
2022/07/21 06:06:32;;;;;;;5.03;3.97;;;23.10;99.90;;;;;;5084578;28;20717;-65
2022/07/21 06:08:59;;;;;;;4.25;3.85;;;23.10;99.90;;;;;;5085254;28;20192;-65
2022/07/21 06:11:27;;;;;;;4.40;3.83;;;23.20;99.90;;;;;;5088276;28;20409;-65
2022/07/21 06:13:55;;;;;;;4.10;3.70;;;23.20;99.90;;;;;;5085689;28;20298;-66
2022/07/21 06:16:23;;;;;;;4.53;4.00;;;23.30;99.90;;;;;;5087992;28;20201;-65
2022/07/21 06:18:50;;;;;;;3.75;3.13;;;23.30;99.90;;;;;;5087051;28;20219;-64
2022/07/21 06:21:17;;;;;;;4.63;4.18;;;23.40;99.90;;;;;;5087468;28;20211;-64
2022/07/21 06:23:44;;;;;;;5.00;4.20;;;23.40;99.90;;;;;;5085581;28;20207;-64
2022/07/21 06:26:11;;;;;;;3.80;3.50;;;23.50;99.90;;;;;;5085009;28;20690;-65
2022/07/21 06:28:39;;;;;;;5.05;3.53;;;23.60;99.90;;;;;;5085827;28;20212;-65
2022/07/21 06:31:07;;;;;;;5.53;3.80;;;23.60;99.90;;;;;;5089161;28;20189;-65
2022/07/21 06:33:34;;;;;;;5.95;4.13;;;23.70;99.90;;;;;;5084107;27;21045;-65
2022/07/21 06:36:02;;;;;;;4.13;3.72;;;23.70;99.90;;;;;;5085820;28;20208;-65
2022/07/21 06:38:29;;;;;;;7.32;4.32;;;23.80;99.90;;;;;;5085621;27;20672;-65
2022/07/21 06:40:56;;;;;;;5.07;3.60;;;23.90;99.90;;;;;;5085781;28;20200;-65
2022/07/21 06:43:23;;;;;;;5.22;3.90;;;24.00;99.90;;;;;;5082377;27;20267;-64
2022/07/21 06:45:51;;;;;;;5.85;4.50;;;24.00;99.90;;;;;;5086106;28;20258;-64
2022/07/21 06:48:21;;;;;;;10.63;3.80;;;24.10;99.90;;;;;;5086880;28;20400;-65
2022/07/21 06:50:48;;;;;;;3.97;3.67;;;24.10;99.90;;;;;;5083663;28;20214;-65
2022/07/21 06:53:15;;;;;;;5.75;3.75;;;24.20;99.90;;;;;;5086931;28;20687;-65
2022/07/21 06:55:43;;;;;;;7.15;4.07;;;24.30;99.90;;;;;;5088540;28;20203;-66
2022/07/21 06:58:12;;;;;;;13.38;4.47;;;24.30;99.90;;;;;;5086308;28;20966;-64
2022/07/21 07:00:39;;;;;;;6.13;4.20;;;24.40;99.90;;;;;;5086386;28;20199;-63
2022/07/21 07:03:06;;;;;;;4.00;3.70;;;24.50;99.50;;;;;;5089197;28;20204;-63
2022/07/21 07:05:35;;;;;;;3.90;3.50;;;24.50;99.20;;;;;;5083595;28;20208;-63
2022/07/21 07:08:03;;;;;;;4.55;3.75;;;24.60;99.10;;;;;;5086281;28;20586;-64
2022/07/21 07:10:30;;;;;;;4.28;3.80;;;24.70;99.00;;;;;;5086255;28;20187;-63
2022/07/21 07:12:57;;;;;;;3.50;3.20;;;24.70;98.90;;;;;;5086916;28;20287;-64
2022/07/21 07:15:25;;;;;;;4.30;3.90;;;24.80;98.80;;;;;;5086332;28;20234;-64
2022/07/21 07:17:53;;;;;;;3.60;3.33;;;24.90;98.60;;;;;;5085544;28;20185;-64
2022/07/21 07:20:20;;;;;;;5.72;3.70;;;24.90;98.60;;;;;;5085953;28;20212;-64
2022/07/21 07:22:48;;;;;;;4.00;3.67;;;25.00;98.50;;;;;;5087315;28;20187;-64
2022/07/21 07:25:17;;;;;;;4.20;3.42;;;25.10;98.20;;;;;;5086270;28;20211;-64
2022/07/21 07:27:45;;;;;;;3.30;3.10;;;25.20;98.30;;;;;;5084868;28;20208;-63
2022/07/21 07:30:13;;;;;;;3.25;3.00;;;25.20;98.10;;;;;;5087043;28;20481;-64
2022/07/21 07:32:41;;;;;;;3.45;3.15;;;25.30;98.00;;;;;;5086813;28;20184;-64
2022/07/21 07:35:10;;;;;;;4.32;3.40;;;25.40;97.80;;;;;;5084811;28;20199;-64
2022/07/21 07:37:38;;;;;;;3.80;3.28;;;25.40;97.40;;;;;;5086563;28;20195;-64
2022/07/21 07:40:09;;;;;;;3.85;3.50;;;25.50;97.00;;;;;;5084588;28;20223;-64
2022/07/21 07:42:36;;;;;;;4.25;3.60;;;25.60;96.80;;;;;;5086011;28;20203;-64
2022/07/21 07:45:05;;;;;;;3.47;3.10;;;25.70;96.70;;;;;;5083770;28;20201;-65
2022/07/21 07:47:33;;;;;;;4.25;3.00;;;25.70;96.70;;;;;;5086397;28;20278;-64
2022/07/21 07:50:00;;;;;;;3.80;3.25;;;25.80;96.60;;;;;;5085486;28;20626;-64
2022/07/21 07:52:28;;;;;;;7.63;3.63;;;25.90;96.40;;;;;;5086099;28;20216;-65
2022/07/21 07:54:55;;;;;;;6.90;3.35;;;26.00;96.10;;;;;;5084967;28;20200;-64
2022/07/21 07:57:23;;;;;;;5.10;3.60;;;26.10;95.60;;;;;;5084349;28;20223;-64
2022/07/21 07:59:50;;;;;;;6.63;3.53;;;26.10;95.60;;;;;;5083952;28;20583;-64
2022/07/21 08:02:17;;;;;;;4.13;3.72;;;26.20;95.20;;;;;;5085118;28;20668;-64
2022/07/21 08:04:44;;;;;;;4.22;3.20;;;26.30;95.40;;;;;;5086593;28;20280;-64
2022/07/21 08:07:11;;;;;;;5.13;3.80;;;26.40;94.80;;;;;;5083791;28;20222;-64
2022/07/21 08:09:40;;;;;;;3.70;3.40;;;26.50;94.70;;;;;;5083420;28;20204;-64
2022/07/21 08:12:08;;;;;;;4.80;3.55;;;26.50;94.70;;;;;;5085195;28;20708;-64
2022/07/21 08:14:38;;;;;;;4.28;3.55;;;26.60;94.60;;;;;;5082924;28;20682;-64
2022/07/21 08:17:05;;;;;;;3.25;3.03;;;26.70;94.40;;;;;;5086188;28;20254;-64
2022/07/21 08:19:32;;;;;;;3.85;3.55;;;26.80;94.40;;;;;;5084368;28;20216;-64
2022/07/21 08:22:01;;;;;;;3.83;3.33;;;26.80;94.30;;;;;;5084734;28;20216;-64
2022/07/21 08:24:28;;;;;;;3.03;2.80;;;26.90;94.50;;;;;;5084612;28;20620;-64
2022/07/21 08:26:55;;;;;;;3.80;3.47;;;27.00;94.10;;;;;;5085924;28;20204;-64
2022/07/21 08:29:22;;;;;;;4.53;3.40;;;27.00;94.00;;;;;;5083181;28;20228;-64
2022/07/21 08:31:50;;;;;;;3.50;3.10;;;27.10;94.30;;;;;;5085400;28;20205;-64
2022/07/21 08:34:20;;;;;;;3.22;2.95;;;27.20;93.80;;;;;;5085277;28;20193;-64
2022/07/21 08:36:47;;;;;;;4.00;3.60;;;27.20;93.40;;;;;;5084500;28;20196;-64
2022/07/21 08:39:14;;;;;;;3.50;3.20;;;27.30;93.30;;;;;;5084676;28;20681;-64
2022/07/21 08:41:42;;;;;;;3.63;3.35;;;27.40;93.20;;;;;;5085564;28;20298;-64
2022/07/21 08:44:10;;;;;;;3.88;3.53;;;27.50;93.00;;;;;;5083495;28;20544;-63
2022/07/21 08:46:39;;;;;;;3.80;3.50;;;27.50;92.80;;;;;;5084369;28;20200;-64
2022/07/21 08:49:09;;;;;;;3.40;3.10;;;27.60;92.60;;;;;;5084466;28;20220;-65
2022/07/21 08:51:37;;;;;;;3.40;3.20;;;27.70;92.50;;;;;;5084563;28;20188;-64
2022/07/21 08:54:04;;;;;;;3.85;3.40;;;27.80;92.50;;;;;;5077777;28;20753;-64
2022/07/21 08:56:31;;;;;;;6.32;3.70;;;27.90;92.30;;;;;;5083188;28;20617;-64
2022/07/21 08:58:58;;;;;;;3.50;2.95;;;27.90;92.20;;;;;;5083261;28;21988;-64
2022/07/21 09:01:26;;;;;;;4.55;3.90;;;28.00;92.10;;;;;;5088809;28;20207;-65
2022/07/21 09:03:54;;;;;;;8.77;3.30;;;28.10;91.70;;;;;;5084105;28;20224;-65
2022/07/21 09:06:22;;;;;;;5.07;3.25;;;28.20;91.30;;;;;;5084006;28;20196;-65
2022/07/21 09:08:51;;;;;;;3.60;3.30;;;28.20;91.20;;;;;;5085036;28;20207;-64
2022/07/21 09:11:21;;;;;;;3.83;3.53;;;28.30;90.80;;;;;;5084751;28;20822;-64
2022/07/21 09:13:52;;;;;;;5.15;3.53;;;28.40;90.60;;;;;;5082896;28;20336;-64
2022/07/21 09:16:37;;;;;;;4.97;3.38;;;28.40;90.50;;;;;;5084736;28;20609;-64
2022/07/21 09:19:05;;;;;;;3.60;3.40;;;28.60;90.50;;;;;;5084712;28;20712;-65
2022/07/21 09:21:34;;;;;;;3.90;3.60;;;28.60;90.30;;;;;;5083712;28;20674;-64
2022/07/21 09:24:16;;;;;;;3.38;3.10;;;28.70;90.10;;;;;;5097913;27;20208;-64
2022/07/21 09:27:08;;;;;;;4.53;3.50;;;28.80;90.20;;;;;;5083974;28;20316;-64
2022/07/21 09:29:38;;;;;;;4.10;3.70;;;28.90;89.80;;;;;;5064328;28;20806;-64
2022/07/21 09:32:21;;;;;;;3.70;3.40;;;28.90;89.30;;;;;;5083881;28;20694;-64
2022/07/21 09:34:49;;;;;;;3.42;3.13;;;29.00;89.10;;;;;;5086326;28;20191;-64
2022/07/21 09:37:18;;;;;;;4.65;3.38;;;29.00;88.80;;;;;;5088227;28;20302;-64
2022/07/21 09:39:47;;;;;;;5.93;3.30;;;29.10;88.60;;;;;;5085583;28;20578;-63
2022/07/21 09:42:20;;;;;;;4.50;2.95;;;29.20;88.40;;;;;;5103105;27;20345;-65
2022/07/21 09:44:50;;;;;;;3.17;2.97;;;29.20;88.70;;;;;;5086091;28;20262;-65
2022/07/21 09:47:19;;;;;;;3.20;2.97;;;29.30;88.80;;;;;;5087516;28;20219;-64
2022/07/21 09:49:46;;;;;;;3.55;3.25;;;29.40;88.70;;;;;;5086906;28;20287;-64
2022/07/21 09:52:29;;;;;;;5.43;3.08;;;29.40;88.40;;;;;;5086555;28;20632;-64
2022/07/21 09:54:58;;;;;;;4.43;3.30;;;29.50;88.30;;;;;;5085910;28;20375;-64
2022/07/21 09:57:26;;;;;;;4.38;3.50;;;29.50;87.50;;;;;;5101430;27;20696;-64
2022/07/21 09:59:53;;;;;;;3.50;3.20;;;29.60;86.60;;;;;;5085368;28;20295;-64
2022/07/21 10:02:22;;;;;;;3.40;3.20;;;29.70;86.30;;;;;;5087910;28;20228;-64
2022/07/21 10:04:58;;;;;;;4.15;3.65;;;29.80;85.40;;;;;;5087940;28;20561;-62
2022/07/21 10:07:27;;;;;;;5.65;3.63;;;29.80;84.80;;;;;;5086474;28;20300;-63
2022/07/21 10:09:56;;;;;;;3.70;3.50;;;29.90;84.80;;;;;;5085908;28;20673;-63
2022/07/21 10:12:23;;;;;;;3.40;3.10;;;30.00;84.60;;;;;;5088103;28;20310;-62
2022/07/21 10:14:50;;;;;;;4.07;3.47;;;30.00;84.50;;;;;;5088937;28;20568;-63
2022/07/21 10:17:19;;;;;;;4.82;3.55;;;30.00;84.40;;;;;;5088764;28;20687;-63
2022/07/21 10:19:57;;;;;;;3.42;3.22;;;30.10;84.10;;;;;;5088032;28;20271;-63
2022/07/21 10:22:34;;;;;;;5.40;3.13;;;30.10;83.10;;;;;;5087948;28;20679;-63
2022/07/21 10:25:02;;;;;;;3.25;2.83;;;30.10;83.30;;;;;;5086149;28;21947;-63
2022/07/21 10:27:30;;;;;;;3.50;3.10;;;30.10;83.70;;;;;;5086818;28;20279;-63
2022/07/21 10:30:00;;;;;;;3.47;3.28;;;30.10;83.20;;;;;;5085925;28;20710;-63
2022/07/21 10:32:30;;;;;;;4.22;3.38;;;30.10;83.20;;;;;;5087276;28;20667;-63
2022/07/21 10:35:00;;;;;;;5.18;3.28;;;30.10;83.00;;;;;;5087559;28;20240;-63
2022/07/21 10:37:50;;;;;;;3.47;3.25;;;30.10;82.30;;;;;;5088438;28;20804;-63
2022/07/21 10:40:37;;;;;;;3.65;3.35;;;30.10;82.00;;;;;;5086368;28;20308;-62
2022/07/21 10:43:42;;;;;;;3.22;2.83;;;30.10;81.80;;;;;;5085843;28;20279;-63
2022/07/21 10:46:38;;;;;;;5.90;3.03;;;30.10;81.70;;;;;;5090579;28;20212;-63
2022/07/21 10:49:06;;;;;;;3.67;3.38;;;30.10;82.10;;;;;;5090504;28;20211;-63
2022/07/21 10:51:35;;;;;;;4.03;3.30;;;30.10;82.20;;;;;;5090103;28;20266;-62
2022/07/21 10:54:27;;;;;;;3.80;3.40;;;30.10;82.80;;;;;;5084871;28;20282;-63
2022/07/21 10:57:27;;;;;;;4.32;3.53;;;30.10;83.40;;;;;;5085909;28;20798;-62
2022/07/21 11:00:27;;;;;;;4.50;3.60;;;30.30;84.40;;;;;;5085933;28;20193;-62
2022/07/21 11:02:56;;;;;;;3.33;3.00;;;30.40;84.80;;;;;;5045337;28;20609;-62
2022/07/21 11:05:25;;;;;;;4.82;3.03;;;30.50;84.50;;;;;;5085957;28;20193;-62
2022/07/21 11:08:16;;;;;;;6.93;3.63;;;30.60;84.10;;;;;;5088709;28;20315;-63
2022/07/21 11:10:46;;;;;;;3.47;3.17;;;30.60;83.40;;;;;;5086677;28;20199;-63
2022/07/21 11:13:15;;;;;;;4.22;3.13;;;30.70;82.80;;;;;;5115843;27;20276;-63
2022/07/21 11:15:59;;;;;;;17.05;3.53;;;30.70;82.80;;;;;;5081781;28;20332;-63
2022/07/21 11:18:28;;;;;;;3.50;3.20;;;30.70;82.70;;;;;;5100697;27;20268;-63
2022/07/21 11:21:10;;;;;;;3.45;3.22;;;30.80;82.10;;;;;;5085304;28;20276;-63
2022/07/21 11:23:39;;;;;;;7.47;3.70;;;30.80;80.90;;;;;;5087402;28;20203;-63
2022/07/21 11:26:08;;;;;;;3.67;3.38;;;30.80;81.10;;;;;;5085099;28;20771;-63
2022/07/21 11:28:36;;;;;;;3.83;3.53;;;30.80;81.80;;;;;;5086768;28;20289;-63
2022/07/21 11:31:15;;;;;;;4.97;4.57;;;30.80;82.10;;;;;;5085567;28;20249;-63
2022/07/21 11:33:46;;;;;;;3.67;3.35;;;30.80;82.60;;;;;;5085390;28;20717;-63
2022/07/21 11:36:25;;;;;;;3.92;3.30;;;30.80;83.80;;;;;;5085834;28;20204;-63
2022/07/21 11:39:00;;;;;;;3.67;3.10;;;30.80;82.80;;;;;;5085747;28;20191;-62
2022/07/21 11:41:29;;;;;;;3.38;3.08;;;30.80;82.50;;;;;;5082395;28;20797;-63
2022/07/21 11:43:56;;;;;;;3.58;3.28;;;30.70;82.30;;;;;;5084817;28;20203;-64
2022/07/21 11:46:23;;;;;;;3.10;2.90;;;30.70;82.50;;;;;;5086978;28;20237;-64
2022/07/21 11:49:02;;;;;;;9.32;6.80;;;30.70;83.20;;;;;;5084968;28;20200;-63
2022/07/21 11:51:29;;;;;;;9.18;4.28;;;30.70;82.40;;;;;;5086345;28;20192;-63
2022/07/21 11:53:56;;;;;;;6.18;3.53;;;30.70;81.60;;;;;;5084876;27;20196;-63
2022/07/21 11:56:24;;;;;;;6.55;3.33;;;30.60;81.00;;;;;;5084075;28;20269;-63
2022/07/21 11:59:09;;;;;;;3.28;2.90;;;30.60;81.20;;;;;;5082745;28;20223;-63
2022/07/21 12:01:49;;;;;;;6.80;3.33;;;30.60;81.30;;;;;;5089911;28;20621;-63
2022/07/21 12:04:31;;;;;;;3.08;2.88;;;30.60;81.10;;;;;;5085561;28;20856;-64
2022/07/21 12:06:59;;;;;;;4.07;3.10;;;30.50;81.30;;;;;;5083399;28;20210;-63
2022/07/21 12:09:26;;;;;;;3.10;2.90;;;30.50;81.10;;;;;;5084969;28;20239;-63
2022/07/21 12:11:53;;;;;;;3.40;3.08;;;30.50;82.00;;;;;;5085698;28;20609;-64
2022/07/21 12:14:39;;;;;;;3.50;3.28;;;30.50;81.80;;;;;;5086637;28;20324;-63
2022/07/21 12:17:08;;;;;;;3.90;3.60;;;30.50;82.30;;;;;;5085564;28;20192;-64
2022/07/21 12:19:35;;;;;;;4.43;4.13;;;30.40;82.40;;;;;;5082427;28;20374;-63
2022/07/21 12:22:04;;;;;;;3.67;3.38;;;30.40;82.70;;;;;;5085451;28;20193;-63
2022/07/21 12:24:50;;;;;;;3.50;3.30;;;30.50;83.30;;;;;;5082421;28;20203;-63
2022/07/21 12:27:18;;;;;;;3.42;3.13;;;30.40;82.90;;;;;;5090242;28;20193;-63
2022/07/21 12:29:47;;;;;;;3.50;2.85;;;30.40;83.00;;;;;;5083280;28;20647;-63
2022/07/21 12:32:14;;;;;;;3.08;2.88;;;30.40;82.80;;;;;;5085358;28;20284;-64
2022/07/21 12:34:51;;;;;;;3.38;3.08;;;30.50;83.00;;;;;;5084943;28;20521;-63
2022/07/21 12:37:19;;;;;;;3.35;3.05;;;30.60;83.30;;;;;;5086492;28;20200;-63
2022/07/21 12:40:01;;;;;;;3.03;2.83;;;30.60;82.60;;;;;;5083325;28;20185;-63
2022/07/21 12:42:31;;;;;;;3.20;2.88;;;30.70;82.00;;;;;;5083767;28;20227;-63
2022/07/21 12:45:01;;;;;;;3.58;3.38;;;30.70;81.60;;;;;;5084085;28;20651;-63
2022/07/21 12:47:29;;;;;;;3.50;3.20;;;30.70;81.50;;;;;;5086170;28;20196;-64
2022/07/21 12:49:58;;;;;;;4.05;2.80;;;30.80;81.70;;;;;;5099989;28;20204;-63
2022/07/21 12:52:26;;;;;;;7.00;3.30;;;30.90;81.60;;;;;;5083830;28;20726;-63
2022/07/21 12:54:54;;;;;;;3.42;3.15;;;31.00;81.00;;;;;;5082780;28;20826;-63
2022/07/21 12:57:21;;;;;;;4.22;3.08;;;31.00;80.70;;;;;;5086642;28;20718;-63
2022/07/21 12:59:48;;;;;;;3.50;3.20;;;31.00;80.60;;;;;;5081968;28;20193;-62